sensor_id;sensor_type;location;lat;lon;timestamp;P1;durP1;ratioP1;P2;durP2;ratioP2
63664;SDS011;49820;33.966;73.390;2022-08-18T04:11:02;2.35;;;1.90;;
63664;SDS011;49820;33.966;73.390;2022-08-18T04:13:33;2.85;;;2.05;;
63664;SDS011;49820;33.966;73.390;2022-08-18T04:16:26;2.40;;;2.10;;
63664;SDS011;49820;33.966;73.390;2022-08-18T04:19:00;2.72;;;1.90;;
63664;SDS011;49820;33.966;73.390;2022-08-18T04:24:44;2.22;;;1.95;;
63664;SDS011;49820;33.966;73.390;2022-08-18T04:27:34;4.38;;;2.45;;
63664;SDS011;49820;33.966;73.390;2022-08-18T04:30:23;2.83;;;2.25;;
63664;SDS011;49820;33.966;73.390;2022-08-18T04:33:27;2.72;;;2.38;;
63664;SDS011;49820;33.966;73.390;2022-08-18T04:35:57;3.17;;;1.98;;
63664;SDS011;49820;33.966;73.390;2022-08-18T04:38:50;2.50;;;2.30;;
63664;SDS011;49820;33.966;73.390;2022-08-18T04:41:41;2.70;;;2.20;;
63664;SDS011;49820;33.966;73.390;2022-08-18T04:44:46;4.38;;;2.65;;
63664;SDS011;49820;33.966;73.390;2022-08-18T04:47:33;3.38;;;2.40;;
63664;SDS011;49820;33.966;73.390;2022-08-18T04:50:22;2.63;;;2.33;;
63664;SDS011;49820;33.966;73.390;2022-08-18T04:53:10;3.15;;;2.63;;
63664;SDS011;49820;33.966;73.390;2022-08-18T04:56:35;3.75;;;2.80;;
63664;SDS011;49820;33.966;73.390;2022-08-18T05:02:15;2.33;;;2.10;;
63664;SDS011;49820;33.966;73.390;2022-08-18T05:05:05;5.18;;;3.67;;
63664;SDS011;49820;33.966;73.390;2022-08-18T05:08:10;3.40;;;2.85;;
63664;SDS011;49820;33.966;73.390;2022-08-18T05:13:31;4.90;;;2.80;;
63664;SDS011;49820;33.966;73.390;2022-08-18T05:16:36;3.65;;;3.03;;
63664;SDS011;49820;33.966;73.390;2022-08-18T05:19:35;4.07;;;2.80;;
63664;SDS011;49820;33.966;73.390;2022-08-18T05:22:51;3.90;;;3.28;;
63664;SDS011;49820;33.966;73.390;2022-08-18T05:26:16;3.47;;;2.80;;
63664;SDS011;49820;33.966;73.390;2022-08-18T05:28:51;5.18;;;3.20;;
63664;SDS011;49820;33.966;73.390;2022-08-18T05:32:04;4.10;;;3.00;;
63664;SDS011;49820;33.966;73.390;2022-08-18T05:34:53;3.70;;;3.30;;
63664;SDS011;49820;33.966;73.390;2022-08-18T05:37:29;3.95;;;3.08;;
63664;SDS011;49820;33.966;73.390;2022-08-18T05:40:22;6.43;;;3.45;;
63664;SDS011;49820;33.966;73.390;2022-08-18T05:43:11;3.85;;;3.45;;
63664;SDS011;49820;33.966;73.390;2022-08-18T05:46:23;3.65;;;3.35;;
63664;SDS011;49820;33.966;73.390;2022-08-18T05:49:38;3.30;;;3.00;;
63664;SDS011;49820;33.966;73.390;2022-08-18T05:56:06;5.38;;;3.22;;
63664;SDS011;49820;33.966;73.390;2022-08-18T05:59:26;3.83;;;3.20;;
63664;SDS011;49820;33.966;73.390;2022-08-18T06:06:02;4.67;;;3.40;;
63664;SDS011;49820;33.966;73.390;2022-08-18T06:09:16;4.38;;;3.40;;
63664;SDS011;49820;33.966;73.390;2022-08-18T06:12:32;4.30;;;3.15;;
63664;SDS011;49820;33.966;73.390;2022-08-18T06:21:47;4.03;;;3.20;;
63664;SDS011;49820;33.966;73.390;2022-08-18T06:28:35;5.47;;;3.28;;
63664;SDS011;49820;33.966;73.390;2022-08-18T06:35:27;3.55;;;3.10;;
63664;SDS011;49820;33.966;73.390;2022-08-18T06:41:44;6.57;;;3.63;;
63664;SDS011;49820;33.966;73.390;2022-08-18T06:45:00;5.00;;;3.58;;
63664;SDS011;49820;33.966;73.390;2022-08-18T06:48:11;5.63;;;3.50;;
63664;SDS011;49820;33.966;73.390;2022-08-18T06:54:26;7.22;;;3.90;;
63664;SDS011;49820;33.966;73.390;2022-08-18T06:57:36;4.27;;;3.87;;
63664;SDS011;49820;33.966;73.390;2022-08-18T07:05:37;8.75;;;4.65;;
63664;SDS011;49820;33.966;73.390;2022-08-18T07:08:44;5.40;;;4.23;;
63664;SDS011;49820;33.966;73.390;2022-08-18T07:11:32;6.70;;;3.75;;
63664;SDS011;49820;33.966;73.390;2022-08-18T07:14:13;4.95;;;3.67;;
63664;SDS011;49820;33.966;73.390;2022-08-18T07:17:17;3.58;;;3.20;;
63664;SDS011;49820;33.966;73.390;2022-08-18T07:20:31;4.32;;;3.92;;
63664;SDS011;49820;33.966;73.390;2022-08-18T07:23:35;4.40;;;3.70;;
63664;SDS011;49820;33.966;73.390;2022-08-18T07:26:26;5.05;;;3.70;;
63664;SDS011;49820;33.966;73.390;2022-08-18T07:29:33;4.35;;;3.63;;
63664;SDS011;49820;33.966;73.390;2022-08-18T07:32:29;4.37;;;3.73;;
63664;SDS011;49820;33.966;73.390;2022-08-18T07:35:07;4.88;;;4.00;;
63664;SDS011;49820;33.966;73.390;2022-08-18T07:47:11;5.07;;;4.57;;
63664;SDS011;49820;33.966;73.390;2022-08-18T07:50:06;4.90;;;4.43;;
63664;SDS011;49820;33.966;73.390;2022-08-18T07:52:59;5.15;;;4.32;;
63664;SDS011;49820;33.966;73.390;2022-08-18T08:02:51;7.17;;;5.07;;
63664;SDS011;49820;33.966;73.390;2022-08-18T08:05:38;5.63;;;4.70;;
63664;SDS011;49820;33.966;73.390;2022-08-18T08:08:36;6.88;;;5.43;;
63664;SDS011;49820;33.966;73.390;2022-08-18T08:11:46;5.93;;;5.30;;
63664;SDS011;49820;33.966;73.390;2022-08-18T08:18:14;6.30;;;5.70;;
63664;SDS011;49820;33.966;73.390;2022-08-18T08:21:30;7.78;;;6.00;;
63664;SDS011;49820;33.966;73.390;2022-08-18T08:30:55;9.10;;;7.13;;
63664;SDS011;49820;33.966;73.390;2022-08-18T08:36:52;8.90;;;6.78;;
63664;SDS011;49820;33.966;73.390;2022-08-18T08:40:04;10.60;;;6.43;;
63664;SDS011;49820;33.966;73.390;2022-08-18T08:42:59;19.80;;;7.47;;
63664;SDS011;49820;33.966;73.390;2022-08-18T08:46:02;10.20;;;8.48;;
63664;SDS011;49820;33.966;73.390;2022-08-18T08:55:46;7.75;;;7.03;;
63664;SDS011;49820;33.966;73.390;2022-08-18T09:05:20;8.80;;;7.25;;
63664;SDS011;49820;33.966;73.390;2022-08-18T09:18:33;15.32;;;8.02;;
63664;SDS011;49820;33.966;73.390;2022-08-18T09:22:09;7.43;;;6.63;;
63664;SDS011;49820;33.966;73.390;2022-08-18T09:25:55;6.95;;;6.28;;
63664;SDS011;49820;33.966;73.390;2022-08-18T09:28:58;8.00;;;6.88;;
63664;SDS011;49820;33.966;73.390;2022-08-18T09:41:21;6.00;;;5.40;;
63664;SDS011;49820;33.966;73.390;2022-08-18T09:51:33;9.47;;;8.50;;
63664;SDS011;49820;33.966;73.390;2022-08-18T09:54:28;7.73;;;6.30;;
63664;SDS011;49820;33.966;73.390;2022-08-18T09:58:12;6.60;;;5.90;;
63664;SDS011;49820;33.966;73.390;2022-08-18T10:04:24;9.35;;;8.32;;
63664;SDS011;49820;33.966;73.390;2022-08-18T10:07:31;17.42;;;7.93;;
63664;SDS011;49820;33.966;73.390;2022-08-18T10:10:43;53.03;;;9.85;;
63664;SDS011;49820;33.966;73.390;2022-08-18T10:17:37;10.00;;;7.68;;
63664;SDS011;49820;33.966;73.390;2022-08-18T10:27:46;11.30;;;8.65;;
63664;SDS011;49820;33.966;73.390;2022-08-18T10:34:03;54.85;;;9.95;;
63664;SDS011;49820;33.966;73.390;2022-08-18T10:40:35;43.05;;;10.00;;
63664;SDS011;49820;33.966;73.390;2022-08-18T10:43:39;10.02;;;6.32;;
63664;SDS011;49820;33.966;73.390;2022-08-18T10:46:42;5.57;;;4.80;;
63664;SDS011;49820;33.966;73.390;2022-08-18T10:49:23;5.00;;;4.47;;
63664;SDS011;49820;33.966;73.390;2022-08-18T10:52:11;4.70;;;4.17;;
63664;SDS011;49820;33.966;73.390;2022-08-18T10:55:49;5.50;;;4.90;;
63664;SDS011;49820;33.966;73.390;2022-08-18T10:59:46;5.70;;;5.10;;
63664;SDS011;49820;33.966;73.390;2022-08-18T11:02:48;5.85;;;4.72;;
63664;SDS011;49820;33.966;73.390;2022-08-18T11:06:37;8.88;;;5.55;;
63664;SDS011;49820;33.966;73.390;2022-08-18T11:09:53;6.18;;;5.25;;
63664;SDS011;49820;33.966;73.390;2022-08-18T11:19:54;6.95;;;6.07;;
63664;SDS011;49820;33.966;73.390;2022-08-18T11:23:02;7.00;;;5.50;;
63664;SDS011;49820;33.966;73.390;2022-08-18T11:26:14;5.43;;;4.93;;
63664;SDS011;49820;33.966;73.390;2022-08-18T11:32:16;5.77;;;5.17;;
63664;SDS011;49820;33.966;73.390;2022-08-18T11:35:49;5.32;;;4.80;;
63664;SDS011;49820;33.966;73.390;2022-08-18T11:42:05;6.10;;;5.28;;
63664;SDS011;49820;33.966;73.390;2022-08-18T11:45:22;5.85;;;5.25;;
63664;SDS011;49820;33.966;73.390;2022-08-18T11:51:31;6.57;;;5.88;;
63664;SDS011;49820;33.966;73.390;2022-08-18T11:54:21;5.40;;;4.70;;
63664;SDS011;49820;33.966;73.390;2022-08-18T12:01:28;5.35;;;4.85;;
63664;SDS011;49820;33.966;73.390;2022-08-18T12:07:40;4.88;;;4.43;;
63664;SDS011;49820;33.966;73.390;2022-08-18T12:10:27;4.90;;;4.43;;
63664;SDS011;49820;33.966;73.390;2022-08-18T12:13:44;5.88;;;4.65;;
63664;SDS011;49820;33.966;73.390;2022-08-18T12:16:39;5.45;;;4.70;;
63664;SDS011;49820;33.966;73.390;2022-08-18T12:19:34;5.35;;;4.78;;
63664;SDS011;49820;33.966;73.390;2022-08-18T12:22:11;6.07;;;4.60;;
63664;SDS011;49820;33.966;73.390;2022-08-18T12:24:49;5.32;;;4.80;;
63664;SDS011;49820;33.966;73.390;2022-08-18T12:27:54;5.57;;;4.88;;
63664;SDS011;49820;33.966;73.390;2022-08-18T12:30:58;5.20;;;4.60;;
63664;SDS011;49820;33.966;73.390;2022-08-18T12:33:33;5.85;;;4.82;;
63664;SDS011;49820;33.966;73.390;2022-08-18T12:36:45;5.20;;;4.70;;
63664;SDS011;49820;33.966;73.390;2022-08-18T12:39:35;5.70;;;4.67;;
63664;SDS011;49820;33.966;73.390;2022-08-18T12:42:24;5.97;;;4.85;;
63664;SDS011;49820;33.966;73.390;2022-08-18T12:45:15;5.22;;;4.72;;
63664;SDS011;49820;33.966;73.390;2022-08-18T12:47:46;5.20;;;4.50;;
63664;SDS011;49820;33.966;73.390;2022-08-18T12:50:35;4.55;;;4.15;;
63664;SDS011;49820;33.966;73.390;2022-08-18T12:53:43;5.38;;;4.80;;
63664;SDS011;49820;33.966;73.390;2022-08-18T12:56:49;5.40;;;4.72;;
63664;SDS011;49820;33.966;73.390;2022-08-18T12:59:22;4.13;;;3.22;;
63664;SDS011;49820;33.966;73.390;2022-08-18T13:02:16;4.50;;;3.63;;
63664;SDS011;49820;33.966;73.390;2022-08-18T13:04:47;4.47;;;3.63;;
63664;SDS011;49820;33.966;73.390;2022-08-18T13:07:40;4.40;;;3.67;;
63664;SDS011;49820;33.966;73.390;2022-08-18T13:10:45;3.78;;;3.40;;
63664;SDS011;49820;33.966;73.390;2022-08-18T13:13:41;3.70;;;3.30;;
63664;SDS011;49820;33.966;73.390;2022-08-18T13:16:39;5.70;;;4.47;;
63664;SDS011;49820;33.966;73.390;2022-08-18T13:19:45;4.35;;;3.92;;
63664;SDS011;49820;33.966;73.390;2022-08-18T13:22:49;6.03;;;4.93;;
63664;SDS011;49820;33.966;73.390;2022-08-18T13:25:37;4.97;;;4.40;;
63664;SDS011;49820;33.966;73.390;2022-08-18T13:28:31;4.60;;;4.20;;
63664;SDS011;49820;33.966;73.390;2022-08-18T13:31:19;5.45;;;4.70;;
63664;SDS011;49820;33.966;73.390;2022-08-18T13:34:07;5.47;;;4.90;;
63664;SDS011;49820;33.966;73.390;2022-08-18T13:36:59;5.40;;;4.90;;
63664;SDS011;49820;33.966;73.390;2022-08-18T13:39:29;6.82;;;6.13;;
63664;SDS011;49820;33.966;73.390;2022-08-18T13:42:18;6.90;;;6.15;;
63664;SDS011;49820;33.966;73.390;2022-08-18T13:45:17;5.82;;;5.22;;
63664;SDS011;49820;33.966;73.390;2022-08-18T13:47:52;6.78;;;5.97;;
63664;SDS011;49820;33.966;73.390;2022-08-18T13:50:43;6.20;;;5.47;;
63664;SDS011;49820;33.966;73.390;2022-08-18T13:53:41;7.07;;;6.37;;
63664;SDS011;49820;33.966;73.390;2022-08-18T13:56:45;8.83;;;7.73;;
63664;SDS011;49820;33.966;73.390;2022-08-18T13:59:49;10.90;;;8.13;;
63664;SDS011;49820;33.966;73.390;2022-08-18T14:02:38;8.95;;;7.40;;
63664;SDS011;49820;33.966;73.390;2022-08-18T14:05:42;26.23;;;9.15;;
63664;SDS011;49820;33.966;73.390;2022-08-18T14:08:47;41.92;;;8.18;;
63664;SDS011;49820;33.966;73.390;2022-08-18T14:11:17;34.63;;;8.35;;
63664;SDS011;49820;33.966;73.390;2022-08-18T14:14:23;118.07;;;10.35;;
63664;SDS011;49820;33.966;73.390;2022-08-18T14:17:27;94.57;;;10.25;;
63664;SDS011;49820;33.966;73.390;2022-08-18T14:20:16;75.50;;;8.85;;
63664;SDS011;49820;33.966;73.390;2022-08-18T14:23:32;7.37;;;5.77;;
63664;SDS011;49820;33.966;73.390;2022-08-18T14:26:37;9.32;;;7.50;;
63664;SDS011;49820;33.966;73.390;2022-08-18T14:29:35;8.27;;;6.73;;
63664;SDS011;49820;33.966;73.390;2022-08-18T14:32:41;10.35;;;8.43;;
63664;SDS011;49820;33.966;73.390;2022-08-18T14:35:45;9.03;;;7.10;;
63664;SDS011;49820;33.966;73.390;2022-08-18T14:38:53;7.15;;;6.43;;
63664;SDS011;49820;33.966;73.390;2022-08-18T14:41:24;7.28;;;5.90;;
63664;SDS011;49820;33.966;73.390;2022-08-18T14:44:11;6.20;;;5.60;;
63664;SDS011;49820;33.966;73.390;2022-08-18T14:47:16;7.88;;;6.05;;
63664;SDS011;49820;33.966;73.390;2022-08-18T14:50:09;6.95;;;5.85;;
63664;SDS011;49820;33.966;73.390;2022-08-18T14:53:04;6.88;;;5.65;;
63664;SDS011;49820;33.966;73.390;2022-08-18T14:55:53;7.63;;;6.17;;
63664;SDS011;49820;33.966;73.390;2022-08-18T14:59:01;8.30;;;5.93;;
63664;SDS011;49820;33.966;73.390;2022-08-18T15:02:10;7.03;;;6.05;;
63664;SDS011;49820;33.966;73.390;2022-08-18T15:05:38;7.35;;;6.22;;
63664;SDS011;49820;33.966;73.390;2022-08-18T15:08:50;7.15;;;6.20;;
63664;SDS011;49820;33.966;73.390;2022-08-18T15:12:18;7.35;;;6.30;;
63664;SDS011;49820;33.966;73.390;2022-08-18T15:18:33;8.80;;;7.80;;
63664;SDS011;49820;33.966;73.390;2022-08-18T15:21:38;7.93;;;7.10;;
63664;SDS011;49820;33.966;73.390;2022-08-18T15:25:01;8.45;;;7.13;;
63664;SDS011;49820;33.966;73.390;2022-08-18T15:28:25;8.73;;;7.70;;
63664;SDS011;49820;33.966;73.390;2022-08-18T15:31:30;8.60;;;7.70;;
63664;SDS011;49820;33.966;73.390;2022-08-18T15:34:35;8.82;;;7.93;;
63664;SDS011;49820;33.966;73.390;2022-08-18T15:37:35;9.00;;;7.35;;
63664;SDS011;49820;33.966;73.390;2022-08-18T15:40:14;9.35;;;7.07;;
63664;SDS011;49820;33.966;73.390;2022-08-18T15:46:32;8.27;;;7.00;;
63664;SDS011;49820;33.966;73.390;2022-08-18T15:49:22;7.43;;;6.60;;
63664;SDS011;49820;33.966;73.390;2022-08-18T15:52:18;8.10;;;7.22;;
63664;SDS011;49820;33.966;73.390;2022-08-18T15:55:24;9.02;;;7.70;;
63664;SDS011;49820;33.966;73.390;2022-08-18T15:58:31;32.80;;;9.57;;
63664;SDS011;49820;33.966;73.390;2022-08-18T16:01:35;65.60;;;11.80;;
63664;SDS011;49820;33.966;73.390;2022-08-18T16:04:40;71.45;;;11.43;;
63664;SDS011;49820;33.966;73.390;2022-08-18T16:10:30;30.67;;;10.43;;
63664;SDS011;49820;33.966;73.390;2022-08-18T16:13:41;48.33;;;11.32;;
63664;SDS011;49820;33.966;73.390;2022-08-18T16:16:46;11.38;;;8.90;;
63664;SDS011;49820;33.966;73.390;2022-08-18T16:22:23;15.15;;;10.05;;
63664;SDS011;49820;33.966;73.390;2022-08-18T16:25:46;12.50;;;9.85;;
63664;SDS011;49820;33.966;73.390;2022-08-18T16:29:09;23.10;;;9.77;;
63664;SDS011;49820;33.966;73.390;2022-08-18T16:32:31;48.90;;;9.18;;
63664;SDS011;49820;33.966;73.390;2022-08-18T16:35:03;50.50;;;10.57;;
63664;SDS011;49820;33.966;73.390;2022-08-18T16:37:54;10.43;;;8.57;;
63664;SDS011;49820;33.966;73.390;2022-08-18T16:41:08;7.97;;;6.60;;
63664;SDS011;49820;33.966;73.390;2022-08-18T16:44:18;9.77;;;8.13;;
63664;SDS011;49820;33.966;73.390;2022-08-18T16:47:26;8.90;;;6.88;;
63664;SDS011;49820;33.966;73.390;2022-08-18T16:50:28;7.32;;;6.10;;
63664;SDS011;49820;33.966;73.390;2022-08-18T16:53:29;7.55;;;6.78;;
63664;SDS011;49820;33.966;73.390;2022-08-18T16:56:52;8.33;;;6.83;;
63664;SDS011;49820;33.966;73.390;2022-08-18T16:59:56;7.53;;;5.97;;
63664;SDS011;49820;33.966;73.390;2022-08-18T17:03:28;6.28;;;5.68;;
63664;SDS011;49820;33.966;73.390;2022-08-18T17:06:51;5.80;;;5.20;;
63664;SDS011;49820;33.966;73.390;2022-08-18T17:09:56;5.30;;;4.30;;
63664;SDS011;49820;33.966;73.390;2022-08-18T17:13:01;4.72;;;3.80;;
63664;SDS011;49820;33.966;73.390;2022-08-18T17:16:07;4.53;;;4.00;;
63664;SDS011;49820;33.966;73.390;2022-08-18T17:19:12;4.88;;;4.20;;
63664;SDS011;49820;33.966;73.390;2022-08-18T17:22:18;5.18;;;4.38;;
63664;SDS011;49820;33.966;73.390;2022-08-18T17:25:06;6.03;;;5.27;;
63664;SDS011;49820;33.966;73.390;2022-08-18T17:27:59;5.85;;;5.05;;
63664;SDS011;49820;33.966;73.390;2022-08-18T17:30:36;6.60;;;5.22;;
63664;SDS011;49820;33.966;73.390;2022-08-18T17:34:10;6.30;;;5.10;;
63664;SDS011;49820;33.966;73.390;2022-08-18T17:43:55;6.28;;;5.45;;
63664;SDS011;49820;33.966;73.390;2022-08-18T17:46:37;8.15;;;6.50;;
63664;SDS011;49820;33.966;73.390;2022-08-18T17:49:37;8.38;;;7.45;;
63664;SDS011;49820;33.966;73.390;2022-08-18T17:53:04;8.82;;;7.57;;
63664;SDS011;49820;33.966;73.390;2022-08-18T17:59:07;8.48;;;7.35;;
63664;SDS011;49820;33.966;73.390;2022-08-18T18:02:26;10.40;;;7.82;;
63664;SDS011;49820;33.966;73.390;2022-08-18T18:05:38;10.90;;;8.07;;
63664;SDS011;49820;33.966;73.390;2022-08-18T18:08:47;9.70;;;8.30;;
63664;SDS011;49820;33.966;73.390;2022-08-18T18:11:26;9.52;;;8.27;;
63664;SDS011;49820;33.966;73.390;2022-08-18T18:21:00;9.63;;;8.27;;
63664;SDS011;49820;33.966;73.390;2022-08-18T18:24:28;9.45;;;8.45;;
63664;SDS011;49820;33.966;73.390;2022-08-18T18:27:24;9.70;;;8.50;;
63664;SDS011;49820;33.966;73.390;2022-08-18T18:35:00;10.98;;;8.73;;
63664;SDS011;49820;33.966;73.390;2022-08-18T19:25:17;15.40;;;12.88;;
63664;SDS011;49820;33.966;73.390;2022-08-18T20:50:52;102.18;;;15.27;;
63664;SDS011;49820;33.966;73.390;2022-08-18T21:22:47;13.87;;;12.20;;
63664;SDS011;49820;33.966;73.390;2022-08-18T21:42:27;48.78;;;11.70;;
63664;SDS011;49820;33.966;73.390;2022-08-18T21:46:32;45.63;;;11.90;;
63664;SDS011;49820;33.966;73.390;2022-08-18T21:54:23;118.25;;;15.88;;
63664;SDS011;49820;33.966;73.390;2022-08-18T22:02:18;28.92;;;11.75;;
63664;SDS011;49820;33.966;73.390;2022-08-18T22:10:19;18.57;;;10.93;;
63664;SDS011;49820;33.966;73.390;2022-08-18T22:14:43;25.67;;;11.27;;
63664;SDS011;49820;33.966;73.390;2022-08-18T22:34:57;12.45;;;9.80;;
63664;SDS011;49820;33.966;73.390;2022-08-18T22:38:15;95.93;;;13.15;;
63664;SDS011;49820;33.966;73.390;2022-08-18T22:41:28;48.97;;;11.17;;
63664;SDS011;49820;33.966;73.390;2022-08-18T22:45:02;31.83;;;9.88;;
63664;SDS011;49820;33.966;73.390;2022-08-18T22:48:20;38.50;;;10.97;;
63664;SDS011;49820;33.966;73.390;2022-08-18T22:51:55;66.75;;;12.43;;
63664;SDS011;49820;33.966;73.390;2022-08-18T22:55:25;97.40;;;13.73;;
63664;SDS011;49820;33.966;73.390;2022-08-18T22:58:29;12.93;;;10.13;;
63664;SDS011;49820;33.966;73.390;2022-08-18T23:01:43;11.25;;;9.88;;
63664;SDS011;49820;33.966;73.390;2022-08-18T23:04:41;11.73;;;9.60;;
63664;SDS011;49820;33.966;73.390;2022-08-18T23:07:52;10.95;;;9.00;;
63664;SDS011;49820;33.966;73.390;2022-08-18T23:10:36;10.60;;;9.40;;
63664;SDS011;49820;33.966;73.390;2022-08-18T23:13:15;10.85;;;9.40;;
63664;SDS011;49820;33.966;73.390;2022-08-18T23:16:39;10.43;;;8.70;;
63664;SDS011;49820;33.966;73.390;2022-08-18T23:19:57;11.10;;;9.18;;
63664;SDS011;49820;33.966;73.390;2022-08-18T23:23:48;10.17;;;8.60;;
63664;SDS011;49820;33.966;73.390;2022-08-18T23:27:42;10.30;;;9.20;;
63664;SDS011;49820;33.966;73.390;2022-08-18T23:32:01;8.80;;;6.70;;
63664;SDS011;49820;33.966;73.390;2022-08-18T23:35:44;8.60;;;6.80;;
63664;SDS011;49820;33.966;73.390;2022-08-18T23:43:07;11.23;;;8.27;;
63664;SDS011;49820;33.966;73.390;2022-08-18T23:45:59;9.60;;;8.15;;
63664;SDS011;49820;33.966;73.390;2022-08-18T23:57:32;8.80;;;7.45;;
